Time;durP1;ratioP1;P1;durP2;ratioP2;P2;SDS_P1;SDS_P2;PMS_P1;PMS_P2;Temp;Humidity;BMP_temperature;BMP_pressure;BME280_temperature;BME280_humidity;BME280_pressure;Samples;Min_cycle;Max_cycle;Signal;HPM_P1;HPM_P2
2023/03/30 00:00:54;;;;;;;;;;;;;;;19.83;39.19;99651.19;4978347;28;6878;-73
2023/03/30 00:03:21;;;;;;;;;;;;;;;19.81;38.84;99662.44;4987342;28;6868;-74
2023/03/30 00:05:50;;;;;;;;;;;;;;;19.77;38.98;99653.78;4976289;28;7030;-73
2023/03/30 00:08:17;;;;;;;;;;;;;;;19.80;38.95;99646.00;4984889;28;6796;-74
2023/03/30 00:10:46;;;;;;;;;;;;;;;19.84;39.34;99660.72;4981743;28;6784;-74
2023/03/30 00:13:12;;;;;;;;;;;;;;;19.86;38.87;99652.91;4984234;28;6856;-74
2023/03/30 00:15:38;;;;;;;;;;;;;;;19.92;39.10;99657.22;4986593;28;7200;-73
2023/03/30 00:18:04;;;;;;;;;;;;;;;19.97;39.08;99653.78;4984758;28;6980;-73
2023/03/30 00:20:33;;;;;;;;;;;;;;;20.00;38.73;99645.13;4975240;28;6848;-73
2023/03/30 00:22:59;;;;;;;;;;;;;;;20.05;38.41;99635.53;4979396;28;6816;-73
2023/03/30 00:25:25;;;;;;;;;;;;;;;20.10;38.53;99639.00;4968814;28;6780;-73
2023/03/30 00:27:51;;;;;;;;;;;;;;;20.19;38.52;99632.03;4970339;28;6856;-73
2023/03/30 00:30:18;;;;;;;;;;;;;;;20.23;38.56;99618.13;4975241;28;6855;-74
2023/03/30 00:32:45;;;;;;;;;;;;;;;20.27;38.51;99614.66;4965484;28;7010;-73
2023/03/30 00:35:12;;;;;;;;;;;;;;;20.32;38.13;99607.69;4974562;28;7036;-73
2023/03/30 00:37:38;;;;;;;;;;;;;;;20.35;38.04;99597.25;4979924;28;6784;-74
2023/03/30 00:40:12;;;;;;;;;;;;;;;20.36;38.12;99593.78;4977674;28;6784;-74
2023/03/30 00:42:37;;;;;;;;;;;;;;;20.35;38.43;99588.59;4978472;28;6871;-74
2023/03/30 00:45:15;;;;;;;;;;;;;;;20.35;38.03;99586.84;4982047;28;7217;-74
2023/03/30 00:47:49;;;;;;;;;;;;;;;20.35;37.82;99591.22;4975916;28;7077;-74
2023/03/30 00:50:20;;;;;;;;;;;;;;;20.34;37.87;99585.13;4960802;28;7016;-74
2023/03/30 00:52:51;;;;;;;;;;;;;;;20.34;37.89;99582.53;4979074;28;7277;-74
2023/03/30 00:55:23;;;;;;;;;;;;;;;20.34;38.05;99579.91;4972730;28;6792;-74
2023/03/30 00:57:51;;;;;;;;;;;;;;;20.35;37.99;99593.81;4973907;28;8600;-74
2023/03/30 01:00:18;;;;;;;;;;;;;;;20.40;38.41;99589.44;4993977;28;7290;-73
2023/03/30 01:02:55;;;;;;;;;;;;;;;20.45;37.94;99587.69;4958603;28;6988;-73
2023/03/30 01:05:23;;;;;;;;;;;;;;;20.50;37.96;99583.28;4984240;28;7566;-74
2023/03/30 01:07:50;;;;;;;;;;;;;;;20.55;37.86;99585.88;4975229;28;7714;-73
2023/03/30 01:10:17;;;;;;;;;;;;;;;20.61;37.95;99583.25;4965988;28;6860;-73
2023/03/30 01:12:44;;;;;;;;;;;;;;;20.64;38.28;99588.41;4962203;28;8842;-73
2023/03/30 01:15:10;;;;;;;;;;;;;;;20.68;37.98;99582.34;4969154;28;6832;-74
2023/03/30 01:17:53;;;;;;;;;;;;;;;20.72;37.71;99587.50;4981974;28;6927;-74
2023/03/30 01:21:03;;;;;;;;;;;;;;;20.74;37.64;99599.66;4977472;28;8535;-74
2023/03/30 01:23:53;;;;;;;;;;;;;;;20.77;37.98;99591.81;4977425;28;9500;-74
2023/03/30 01:26:44;;;;;;;;;;;;;;;20.80;37.72;99557.09;4976951;28;7451;-74
2023/03/30 01:29:21;;;;;;;;;;;;;;;20.80;37.66;99583.13;4967705;28;7024;-73
2023/03/30 01:32:30;;;;;;;;;;;;;;;20.81;37.93;99575.31;4979049;28;7450;-74
2023/03/30 01:35:23;;;;;;;;;;;;;;;20.85;37.84;99585.72;4977522;28;7038;-74
2023/03/30 01:38:35;;;;;;;;;;;;;;;20.88;37.62;99589.19;4978647;28;6816;-73
2023/03/30 01:41:09;;;;;;;;;;;;;;;20.90;37.66;99579.59;4973551;28;6966;-74
2023/03/30 01:43:59;;;;;;;;;;;;;;;20.90;37.79;99571.78;4972265;28;6796;-73
2023/03/30 01:46:51;;;;;;;;;;;;;;;20.91;37.68;99572.66;4961654;28;6991;-74
2023/03/30 01:49:33;;;;;;;;;;;;;;;20.92;37.42;99571.78;4974722;28;6820;-74
2023/03/30 01:52:24;;;;;;;;;;;;;;;20.92;37.52;99582.22;4982749;28;7018;-73
2023/03/30 01:55:03;;;;;;;;;;;;;;;20.92;37.47;99572.63;4980164;28;7007;-73
2023/03/30 01:57:54;;;;;;;;;;;;;;;20.92;37.50;99570.03;5001565;28;6859;-74
2023/03/30 02:00:24;;;;;;;;;;;;;;;20.92;37.32;99569.19;4983734;28;7381;-73
2023/03/30 02:03:01;;;;;;;;;;;;;;;20.88;37.32;99557.91;4967824;28;7021;-74
2023/03/30 02:05:30;;;;;;;;;;;;;;;20.87;37.54;99563.13;4982444;28;7614;-73
2023/03/30 02:08:06;;;;;;;;;;;;;;;20.82;37.57;99555.34;4976911;28;7027;-74
2023/03/30 02:10:35;;;;;;;;;;;;;;;20.75;37.76;99525.88;4978338;28;6828;-73
2023/03/30 02:13:04;;;;;;;;;;;;;;;20.70;38.04;99519.81;5000247;28;7024;-74
2023/03/30 02:15:41;;;;;;;;;;;;;;;20.66;37.98;99489.50;4980668;28;7150;-75
2023/03/30 02:18:08;;;;;;;;;;;;;;;20.61;38.15;99523.38;4982955;28;7115;-75
2023/03/30 02:20:35;;;;;;;;;;;;;;;20.55;38.21;99544.22;4985722;28;7008;-73
2023/03/30 02:23:04;;;;;;;;;;;;;;;20.48;38.29;99550.38;4983820;28;8052;-74
2023/03/30 02:25:31;;;;;;;;;;;;;;;20.42;38.59;99545.19;4981649;28;6808;-73
2023/03/30 02:27:57;;;;;;;;;;;;;;;20.34;38.22;99546.09;4984617;28;7856;-73
2023/03/30 02:30:23;;;;;;;;;;;;;;;20.28;38.50;99543.56;4979423;28;6819;-74
2023/03/30 02:32:55;;;;;;;;;;;;;;;20.21;38.69;99531.44;4979813;28;7166;-74
2023/03/30 02:35:23;;;;;;;;;;;;;;;20.12;39.28;99516.72;4977481;28;8041;-73
2023/03/30 02:38:41;;;;;;;;;;;;;;;20.06;38.63;99519.38;4994340;28;7068;-74
2023/03/30 02:41:45;;;;;;;;;;;;;;;19.97;39.46;99515.06;4986169;28;7018;-73
2023/03/30 02:44:51;;;;;;;;;;;;;;;19.97;39.36;99508.16;4970565;28;7297;-73
2023/03/30 02:48:08;;;;;;;;;;;;;;;19.97;39.55;99513.34;4966820;28;8000;-73
2023/03/30 02:50:57;;;;;;;;;;;;;;;19.93;39.34;99515.94;4974477;28;6843;-74
2023/03/30 02:53:48;;;;;;;;;;;;;;;19.86;39.21;99520.31;4981476;28;6876;-73
2023/03/30 02:56:32;;;;;;;;;;;;;;;19.78;39.53;99522.91;4971981;28;7009;-74
2023/03/30 02:59:09;;;;;;;;;;;;;;;19.71;39.48;99531.63;4965214;28;7042;-74
2023/03/30 03:01:49;;;;;;;;;;;;;;;19.62;39.36;99529.06;4970869;28;7167;-73
2023/03/30 03:04:17;;;;;;;;;;;;;;;19.55;39.80;99528.19;4972774;28;6796;-74
2023/03/30 03:06:45;;;;;;;;;;;;;;;19.49;40.16;99526.47;4978918;28;6816;-74
2023/03/30 03:09:10;;;;;;;;;;;;;;;19.42;39.68;99517.00;4973967;28;7317;-73
2023/03/30 03:11:36;;;;;;;;;;;;;;;19.37;40.01;99513.53;4976837;28;6844;-73
2023/03/30 03:14:02;;;;;;;;;;;;;;;19.33;40.43;99512.66;4975218;28;7328;-74
2023/03/30 03:16:27;;;;;;;;;;;;;;;19.29;40.11;99518.75;4966469;28;7510;-73
2023/03/30 03:18:53;;;;;;;;;;;;;;;19.26;40.53;99511.81;4970287;28;6792;-74
2023/03/30 03:21:19;;;;;;;;;;;;;;;19.24;40.84;99516.16;4967397;28;6895;-73
2023/03/30 03:23:47;;;;;;;;;;;;;;;19.17;40.59;99513.56;4977400;28;6923;-73
2023/03/30 03:26:12;;;;;;;;;;;;;;;19.11;40.52;99509.22;4971795;28;6800;-74
2023/03/30 03:28:38;;;;;;;;;;;;;;;19.06;40.63;99511.00;4970825;28;7019;-73
2023/03/30 03:31:06;;;;;;;;;;;;;;;19.02;41.16;99507.53;4967069;28;7014;-73
2023/03/30 03:33:32;;;;;;;;;;;;;;;18.97;40.84;99506.63;4964192;28;8232;-73
2023/03/30 03:35:59;;;;;;;;;;;;;;;18.92;41.47;99503.19;4968822;28;6844;-74
2023/03/30 03:38:26;;;;;;;;;;;;;;;18.90;41.17;99497.13;4976875;28;6788;-73
2023/03/30 03:40:55;;;;;;;;;;;;;;;18.87;41.49;99498.84;4952255;28;7050;-73
2023/03/30 03:43:22;;;;;;;;;;;;;;;18.85;41.68;99502.31;4978709;28;6808;-73
2023/03/30 03:45:49;;;;;;;;;;;;;;;18.85;41.04;99497.97;4976899;28;6931;-73
2023/03/30 03:48:20;;;;;;;;;;;;;;;18.87;41.33;99505.78;4978401;28;7154;-74
2023/03/30 03:50:51;;;;;;;;;;;;;;;18.91;41.25;99515.28;4964519;28;7034;-74
2023/03/30 03:53:18;;;;;;;;;;;;;;;18.93;41.61;99516.16;4985382;28;7065;-74
2023/03/30 03:55:45;;;;;;;;;;;;;;;18.98;41.39;99510.97;4979021;28;6784;-74
2023/03/30 03:58:12;;;;;;;;;;;;;;;19.03;41.31;99495.44;4985996;28;6792;-74
2023/03/30 04:00:37;;;;;;;;;;;;;;;19.08;41.27;99489.34;4975466;28;6784;-74
2023/03/30 04:03:04;;;;;;;;;;;;;;;19.12;41.15;99492.78;4983009;28;6941;-74
2023/03/30 04:05:30;;;;;;;;;;;;;;;19.14;41.59;99491.06;4986764;28;6776;-74
2023/03/30 04:07:56;;;;;;;;;;;;;;;19.18;41.18;99491.94;4980759;28;6927;-74
2023/03/30 04:10:22;;;;;;;;;;;;;;;19.21;41.55;99494.53;4960119;28;7246;-74
2023/03/30 04:12:48;;;;;;;;;;;;;;;19.24;41.43;99494.50;4985857;28;6788;-74
2023/03/30 04:15:14;;;;;;;;;;;;;;;19.24;41.72;99502.28;4980052;28;7285;-73
2023/03/30 04:17:39;;;;;;;;;;;;;;;19.26;41.58;99496.22;4985020;28;6764;-73
2023/03/30 04:20:10;;;;;;;;;;;;;;;19.28;41.68;99512.69;4982232;28;6772;-74
2023/03/30 04:22:40;;;;;;;;;;;;;;;19.28;41.26;99506.63;4971902;28;6991;-73
2023/03/30 04:25:13;;;;;;;;;;;;;;;19.31;41.52;99513.53;4969763;28;8131;-73
2023/03/30 04:27:44;;;;;;;;;;;;;;;19.34;41.65;99516.16;4981620;28;6863;-74
2023/03/30 04:30:11;;;;;;;;;;;;;;;19.37;41.07;99518.72;4971665;28;6961;-73
2023/03/30 04:32:37;;;;;;;;;;;;;;;19.39;41.33;99507.47;4981290;28;6805;-74
2023/03/30 04:35:09;;;;;;;;;;;;;;;19.41;41.63;99510.03;4979537;28;6979;-74
2023/03/30 04:37:37;;;;;;;;;;;;;;;19.42;41.75;99528.22;4981782;28;6780;-74
2023/03/30 04:40:11;;;;;;;;;;;;;;;19.44;41.84;99523.03;4980080;28;6808;-74
2023/03/30 04:42:38;;;;;;;;;;;;;;;19.45;41.74;99513.50;4967736;28;6791;-73
2023/03/30 04:45:06;;;;;;;;;;;;;;;19.45;41.42;99523.88;4977305;28;6781;-73
2023/03/30 04:47:33;;;;;;;;;;;;;;;19.45;41.66;99516.09;4973733;28;6799;-74
2023/03/30 04:50:00;;;;;;;;;;;;;;;19.45;41.64;99519.56;4985310;28;6868;-74
2023/03/30 04:52:26;;;;;;;;;;;;;;;19.45;41.50;99518.69;4977788;28;6796;-74
2023/03/30 04:54:52;;;;;;;;;;;;;;;19.44;41.57;99515.25;4982346;28;7038;-74
2023/03/30 04:57:19;;;;;;;;;;;;;;;19.42;42.01;99517.00;4971349;28;6931;-74
2023/03/30 04:59:45;;;;;;;;;;;;;;;19.40;41.93;99511.78;4978732;28;6804;-74
2023/03/30 05:02:12;;;;;;;;;;;;;;;19.39;42.00;99506.59;4970493;28;7246;-74
2023/03/30 05:04:38;;;;;;;;;;;;;;;19.37;42.11;99516.13;4980772;28;6804;-74
2023/03/30 05:07:05;;;;;;;;;;;;;;;19.32;41.79;99516.13;4967545;28;7886;-74
2023/03/30 05:09:32;;;;;;;;;;;;;;;19.28;42.32;99528.25;4975019;28;7853;-74
2023/03/30 05:11:58;;;;;;;;;;;;;;;19.24;42.29;99534.34;4969567;28;9006;-73
2023/03/30 05:14:23;;;;;;;;;;;;;;;19.22;42.05;99530.88;4976745;28;6771;-74
2023/03/30 05:16:50;;;;;;;;;;;;;;;19.21;42.05;99526.53;4965152;28;6970;-74
2023/03/30 05:19:16;;;;;;;;;;;;;;;19.18;42.25;99518.75;4966732;28;7483;-74
2023/03/30 05:21:42;;;;;;;;;;;;;;;19.17;41.82;99516.16;4981792;28;6792;-73
2023/03/30 05:24:08;;;;;;;;;;;;;;;19.14;41.97;99519.66;4983567;28;6768;-73
2023/03/30 05:26:34;;;;;;;;;;;;;;;19.11;41.89;99519.63;4981596;28;6772;-73
2023/03/30 05:28:59;;;;;;;;;;;;;;;19.06;41.77;99511.84;4970659;28;8227;-73
2023/03/30 05:31:25;;;;;;;;;;;;;;;19.05;41.91;99514.47;4979747;28;6809;-73
2023/03/30 05:33:51;;;;;;;;;;;;;;;19.05;42.43;99511.88;4974335;28;7590;-73
2023/03/30 05:36:17;;;;;;;;;;;;;;;19.04;41.99;99516.19;4975583;28;7059;-73
2023/03/30 05:38:43;;;;;;;;;;;;;;;19.04;42.38;99517.94;4984899;28;6780;-73
2023/03/30 05:41:09;;;;;;;;;;;;;;;19.01;42.07;99532.63;4964215;28;7132;-73
2023/03/30 05:43:35;;;;;;;;;;;;;;;18.98;42.58;99534.34;4978411;28;6814;-73
2023/03/30 05:46:02;;;;;;;;;;;;;;;18.96;42.45;99536.03;4981236;28;6844;-73
2023/03/30 05:48:29;;;;;;;;;;;;;;;18.96;42.60;99531.75;4978754;28;7132;-73
2023/03/30 05:50:56;;;;;;;;;;;;;;;18.96;42.40;99536.03;4975783;28;7689;-73
2023/03/30 05:53:21;;;;;;;;;;;;;;;18.94;42.42;99530.88;4970075;28;6985;-73
2023/03/30 05:55:48;;;;;;;;;;;;;;;18.90;42.64;99530.88;4981622;28;6792;-73
2023/03/30 05:58:15;;;;;;;;;;;;;;;18.85;42.39;99534.31;4975616;28;8131;-73
2023/03/30 06:00:42;;;;;;;;;;;;;;;18.78;42.34;99524.78;4968694;28;9428;-73
2023/03/30 06:03:10;;;;;;;;;;;;;;;18.73;42.72;99518.75;4976397;28;9434;-73
2023/03/30 06:05:43;;;;;;;;;;;;;;;18.67;42.71;99517.03;4964213;28;9014;-73
2023/03/30 06:08:10;;;;;;;;;;;;;;;18.62;43.10;99521.31;4981683;28;7113;-73
2023/03/30 06:10:37;;;;;;;;;;;;;;;18.58;43.06;99522.19;4981110;28;9667;-73
2023/03/30 06:13:04;;;;;;;;;;;;;;;18.56;42.91;99534.31;4977425;28;6815;-73
2023/03/30 06:15:29;;;;;;;;;;;;;;;18.55;43.06;99538.63;4973321;28;6792;-73
2023/03/30 06:17:56;;;;;;;;;;;;;;;18.58;43.64;99541.22;4963552;28;9975;-73
2023/03/30 06:20:23;;;;;;;;;;;;;;;18.63;43.22;99537.78;4974025;28;6994;-73
2023/03/30 06:22:49;;;;;;;;;;;;;;;18.72;43.86;99546.41;4996659;28;6796;-73
2023/03/30 06:25:15;;;;;;;;;;;;;;;18.81;43.04;99544.69;4968832;28;6796;-73
2023/03/30 06:27:41;;;;;;;;;;;;;;;18.89;43.44;99550.75;4971920;28;6768;-73
2023/03/30 06:30:08;;;;;;;;;;;;;;;18.96;43.11;99552.50;4964495;28;7182;-74
2023/03/30 06:32:35;;;;;;;;;;;;;;;19.00;42.87;99543.88;4977897;28;7000;-74
2023/03/30 06:35:02;;;;;;;;;;;;;;;19.04;43.03;99551.69;4967033;28;9353;-73
2023/03/30 06:37:31;;;;;;;;;;;;;;;19.09;43.11;99555.13;4981577;28;6962;-73
2023/03/30 06:39:57;;;;;;;;;;;;;;;19.14;42.93;99558.59;4972779;28;6990;-73
2023/03/30 06:42:26;;;;;;;;;;;;;;;19.17;43.10;99558.59;4979993;28;7019;-73
2023/03/30 06:44:51;;;;;;;;;;;;;;;19.24;43.35;99562.03;4974812;28;6989;-73
2023/03/30 06:47:18;;;;;;;;;;;;;;;19.30;43.41;99567.22;4983417;28;6832;-73
2023/03/30 06:49:43;;;;;;;;;;;;;;;19.38;43.42;99572.41;4977235;28;6856;-73
2023/03/30 06:52:10;;;;;;;;;;;;;;;19.50;43.01;99572.38;4994543;28;7336;-73
2023/03/30 06:54:35;;;;;;;;;;;;;;;19.63;43.00;99567.19;4972342;28;7040;-73
2023/03/30 06:57:01;;;;;;;;;;;;;;;19.72;43.13;99569.75;4980403;28;7130;-73
2023/03/30 06:59:27;;;;;;;;;;;;;;;19.77;42.64;99580.13;4962392;28;6948;-73
2023/03/30 07:01:52;;;;;;;;;;;;;;;19.77;42.84;99573.19;4958058;28;7250;-73
2023/03/30 07:04:18;;;;;;;;;;;;;;;19.75;42.44;99580.13;4975092;28;7212;-73
2023/03/30 07:06:44;;;;;;;;;;;;;;;19.70;42.69;99582.75;4978655;28;6933;-73
2023/03/30 07:09:09;;;;;;;;;;;;;;;19.65;42.65;99583.63;4959526;28;10655;-73
2023/03/30 07:11:35;;;;;;;;;;;;;;;19.60;42.48;99587.97;4949414;28;7546;-74
2023/03/30 07:14:01;;;;;;;;;;;;;;;19.57;42.64;99583.66;4979285;28;6895;-73
2023/03/30 07:16:27;;;;;;;;;;;;;;;19.55;42.51;99582.78;4962582;28;6947;-73
2023/03/30 07:18:52;;;;;;;;;;;;;;;19.60;42.54;99595.75;4979235;28;6800;-73
2023/03/30 07:21:18;;;;;;;;;;;;;;;19.65;42.95;99596.63;4981679;28;6763;-73
2023/03/30 07:23:44;;;;;;;;;;;;;;;19.65;42.94;99594.03;4965863;28;7032;-73
2023/03/30 07:26:10;;;;;;;;;;;;;;;19.60;42.62;99608.75;4987644;28;6763;-72
2023/03/30 07:28:39;;;;;;;;;;;;;;;19.54;42.43;99613.09;4996709;28;6808;-73
2023/03/30 07:31:07;;;;;;;;;;;;;;;19.45;42.57;99607.03;4977189;28;7079;-73
2023/03/30 07:33:33;;;;;;;;;;;;;;;19.33;43.20;99619.19;4979602;28;6780;-73
2023/03/30 07:35:58;;;;;;;;;;;;;;;19.23;42.85;99630.44;4984103;28;6954;-73
2023/03/30 07:38:24;;;;;;;;;;;;;;;19.03;43.22;99635.66;4984451;28;6772;-73
2023/03/30 07:40:50;;;;;;;;;;;;;;;18.81;43.45;99630.38;4976266;28;7267;-74
2023/03/30 07:43:16;;;;;;;;;;;;;;;18.59;44.40;99636.41;4983540;28;6776;-73
2023/03/30 07:45:41;;;;;;;;;;;;;;;18.42;45.02;99644.09;4982490;28;8115;-73
2023/03/30 07:48:07;;;;;;;;;;;;;;;18.27;45.14;99634.53;4983055;28;7137;-74
2023/03/30 07:50:32;;;;;;;;;;;;;;;18.13;45.97;99642.25;4980962;28;6768;-73
2023/03/30 07:52:58;;;;;;;;;;;;;;;18.08;46.18;99649.16;4971971;28;7189;-73
2023/03/30 07:55:24;;;;;;;;;;;;;;;18.12;46.87;99643.09;4980252;28;6760;-73
2023/03/30 07:57:50;;;;;;;;;;;;;;;18.24;46.92;99649.22;5000715;28;7289;-73
2023/03/30 08:00:16;;;;;;;;;;;;;;;18.39;47.07;99661.38;4993329;28;6775;-73
2023/03/30 08:02:43;;;;;;;;;;;;;;;18.49;47.30;99652.75;4978343;28;6804;-73
2023/03/30 08:05:09;;;;;;;;;;;;;;;18.57;46.87;99660.59;4985445;28;6796;-73
2023/03/30 08:07:35;;;;;;;;;;;;;;;18.65;47.03;99652.81;4983228;28;6783;-73
2023/03/30 08:10:01;;;;;;;;;;;;;;;18.70;46.95;99645.94;4975198;28;6983;-73
2023/03/30 08:12:26;;;;;;;;;;;;;;;18.76;47.10;99655.47;4982622;28;6931;-73
2023/03/30 08:14:54;;;;;;;;;;;;;;;18.85;46.90;99639.91;4979412;28;6918;-73
2023/03/30 08:17:20;;;;;;;;;;;;;;;18.97;47.26;99637.31;4983243;28;6788;-73
2023/03/30 08:19:46;;;;;;;;;;;;;;;19.10;46.11;99643.44;4997431;28;7250;-73
2023/03/30 08:22:11;;;;;;;;;;;;;;;19.23;46.00;99646.91;4997162;28;6857;-73
2023/03/30 08:24:37;;;;;;;;;;;;;;;19.36;46.38;99645.19;4989999;28;6764;-73
2023/03/30 08:27:02;;;;;;;;;;;;;;;19.57;45.81;99644.28;4983491;28;6790;-73
2023/03/30 08:29:30;;;;;;;;;;;;;;;19.82;45.90;99643.38;4966157;28;6918;-74
2023/03/30 08:31:56;;;;;;;;;;;;;;;20.00;45.05;99672.84;4955673;28;7023;-73
2023/03/30 08:34:22;;;;;;;;;;;;;;;19.91;44.66;99678.91;4977761;28;6844;-73
2023/03/30 08:36:48;;;;;;;;;;;;;;;19.52;44.55;99686.72;4952048;28;7252;-73
2023/03/30 08:39:14;;;;;;;;;;;;;;;18.97;44.91;99709.16;4973984;28;6780;-73
2023/03/30 08:42:10;;;;;;;;;;;;;;;18.38;45.76;99694.25;4973771;28;6899;-73
2023/03/30 08:44:42;;;;;;;;;;;;;;;17.75;46.95;99690.41;4984632;28;6883;-73
2023/03/30 08:47:30;;;;;;;;;;;;;;;17.33;47.59;99700.41;4979240;28;7645;-73
2023/03/30 08:50:05;;;;;;;;;;;;;;;17.01;48.48;99705.28;4979183;28;7253;-73
2023/03/30 08:52:32;;;;;;;;;;;;;;;16.73;48.76;99720.47;4960719;28;7700;-73
2023/03/30 08:54:58;;;;;;;;;;;;;;;16.47;49.89;99719.28;4979873;28;7257;-73
2023/03/30 08:58:02;;;;;;;;;;;;;;;16.11;50.98;99720.50;4978101;28;6796;-73
2023/03/30 09:00:43;;;;;;;;;;;;;;;15.76;51.43;99744.09;4979194;28;7248;-73
2023/03/30 09:03:39;;;;;;;;;;;;;;;15.49;51.95;99737.63;4978686;28;8029;-74
2023/03/30 09:06:51;;;;;;;;;;;;;;;15.28;52.35;99745.00;4968922;28;7755;-74
2023/03/30 09:09:29;;;;;;;;;;;;;;;15.10;53.06;99760.13;4965200;28;7003;-74
2023/03/30 09:12:10;;;;;;;;;;;;;;;14.97;53.33;99746.16;4975277;28;6804;-74
2023/03/30 09:14:48;;;;;;;;;;;;;;;14.86;53.92;99767.41;4957345;28;7040;-73
2023/03/30 09:17:27;;;;;;;;;;;;;;;14.79;54.90;99769.84;4965200;28;7003;-74
2023/03/30 09:20:00;;;;;;;;;;;;;;;14.75;55.34;99763.75;4993212;28;9802;-74
2023/03/30 09:22:37;;;;;;;;;;;;;;;14.75;55.99;99757.75;4960308;28;7649;-74
2023/03/30 09:25:36;;;;;;;;;;;;;;;14.76;56.23;99778.38;4959797;28;7320;-75
2023/03/30 09:28:37;;;;;;;;;;;;;;;14.80;56.12;99781.91;4973420;28;7354;-74
2023/03/30 09:31:10;;;;;;;;;;;;;;;14.80;57.10;99789.66;4973495;28;6811;-74
2023/03/30 09:34:03;;;;;;;;;;;;;;;14.84;57.55;99805.22;4983822;28;6796;-75
2023/03/30 09:36:48;;;;;;;;;;;;;;;14.85;58.07;99795.78;4985636;28;6904;-80
2023/03/30 09:39:20;;;;;;;;;;;;;;;14.85;58.15;99791.47;4979525;28;8557;-75
2023/03/30 09:42:22;;;;;;;;;;;;;;;14.88;57.67;99788.09;4987515;28;6921;-77
2023/03/30 09:44:55;;;;;;;;;;;;;;;14.89;58.26;99787.25;4988117;28;6981;-77
2023/03/30 09:47:37;;;;;;;;;;;;;;;14.93;57.42;99783.91;4993511;28;6792;-75
2023/03/30 09:50:13;;;;;;;;;;;;;;;15.02;57.23;99772.00;4980496;28;7003;-73
2023/03/30 09:52:40;;;;;;;;;;;;;;;15.08;56.98;99783.34;4964824;28;7391;-74
2023/03/30 09:55:21;;;;;;;;;;;;;;;15.17;56.83;99787.81;4965415;28;8574;-81
2023/03/30 09:57:49;;;;;;;;;;;;;;;15.31;57.44;99794.97;4983179;28;6989;-76
2023/03/30 10:00:30;;;;;;;;;;;;;;;15.48;57.05;99780.63;4985495;28;8725;-79
2023/03/30 10:03:00;;;;;;;;;;;;;;;15.66;57.16;99790.44;4985226;28;6921;-78
2023/03/30 10:05:26;;;;;;;;;;;;;;;15.88;56.50;99777.88;4983592;28;6796;-79
2023/03/30 10:07:59;;;;;;;;;;;;;;;16.07;55.76;99780.78;4985764;28;6792;-76
2023/03/30 10:10:27;;;;;;;;;;;;;;;16.23;55.42;99787.94;4965084;28;7168;-73
2023/03/30 10:13:10;;;;;;;;;;;;;;;16.37;55.38;99775.22;4988187;28;8356;-77
2023/03/30 10:15:43;;;;;;;;;;;;;;;16.50;54.49;99763.28;4988371;28;6808;-76
2023/03/30 10:18:42;;;;;;;;;;;;;;;16.61;54.31;99780.66;5003681;28;9307;-73
2023/03/30 10:21:14;;;;;;;;;;;;;;;16.85;54.96;99772.38;4989986;28;6856;-78
2023/03/30 10:23:43;;;;;;;;;;;;;;;17.48;54.83;99774.81;4998341;28;7214;-77
2023/03/30 10:26:18;;;;;;;;;;;;;;;18.45;53.87;99767.78;4987100;28;6824;-77
2023/03/30 10:29:12;;;;;;;;;;;;;;;19.46;51.43;99778.56;4990314;28;6939;-74
2023/03/30 10:31:45;;;;;;;;;;;;;;;20.43;50.00;99770.72;4975099;28;7504;-77
2023/03/30 10:34:34;;;;;;;;;;;;;;;21.26;47.76;99764.31;5003963;28;7279;-75
2023/03/30 10:37:15;;;;;;;;;;;;;;;21.91;47.02;99769.06;4990200;28;6993;-74
2023/03/30 10:39:45;;;;;;;;;;;;;;;22.59;45.50;99764.91;4979677;28;7155;-75
2023/03/30 10:42:22;;;;;;;;;;;;;;;22.84;44.38;99771.59;4977571;28;6984;-77
2023/03/30 10:44:59;;;;;;;;;;;;;;;23.02;43.81;99779.19;4982020;28;6811;-78
2023/03/30 10:47:58;;;;;;;;;;;;;;;23.09;42.91;99771.28;4967202;28;7031;-77
2023/03/30 10:50:50;;;;;;;;;;;;;;;23.35;42.58;99781.38;4988642;28;6847;-76
2023/03/30 10:53:50;;;;;;;;;;;;;;;23.70;41.86;99769.53;4993226;28;6812;-77
2023/03/30 10:56:45;;;;;;;;;;;;;;;23.99;41.33;99768.16;4982788;28;6808;-77
2023/03/30 10:59:55;;;;;;;;;;;;;;;24.09;40.66;99776.72;4983047;28;6816;-75
2023/03/30 11:02:48;;;;;;;;;;;;;;;24.21;40.46;99770.41;4992958;28;7071;-76
2023/03/30 11:05:28;;;;;;;;;;;;;;;24.16;39.08;99771.41;4981483;28;6863;-74
2023/03/30 11:08:05;;;;;;;;;;;;;;;24.25;40.05;99772.09;4979850;28;7442;-75
2023/03/30 11:10:44;;;;;;;;;;;;;;;24.45;39.84;99773.47;4985382;28;6796;-76
2023/03/30 11:13:24;;;;;;;;;;;;;;;24.26;39.19;99768.59;4983444;28;6954;-77
2023/03/30 11:16:00;;;;;;;;;;;;;;;23.63;39.21;99778.34;4993903;28;6808;-72
2023/03/30 11:18:46;;;;;;;;;;;;;;;22.91;40.39;99777.63;5019953;28;7079;-73
2023/03/30 11:21:45;;;;;;;;;;;;;;;22.21;40.85;99771.38;4999995;23;6914;-84
2023/03/30 11:24:21;;;;;;;;;;;;;;;21.60;42.09;99773.63;4945264;28;8816;-81
2023/03/30 11:26:52;;;;;;;;;;;;;;;21.44;42.79;99770.28;4937572;28;8517;-85
2023/03/30 11:29:49;;;;;;;;;;;;;;;21.59;43.03;99762.38;4944946;28;8766;-82
2023/03/30 11:32:58;;;;;;;;;;;;;;;21.85;42.25;99763.06;4965045;28;7428;-83
2023/03/30 11:35:44;;;;;;;;;;;;;;;21.59;41.99;99777.13;4966484;28;6835;-82
2023/03/30 11:38:24;;;;;;;;;;;;;;;20.93;43.03;99782.72;4958032;28;8837;-85
2023/03/30 11:41:11;;;;;;;;;;;;;;;20.16;44.37;99798.53;4923506;28;8471;-87
2023/03/30 11:43:40;;;;;;;;;;;;;;;19.52;45.13;99799.34;4956087;28;8474;-90
2023/03/30 11:46:17;;;;;;;;;;;;;;;18.99;46.55;99801.78;4956667;28;7639;-89
2023/03/30 11:49:25;;;;;;;;;;;;;;;18.44;47.53;99808.41;4956557;28;7004;-85
2023/03/30 11:52:25;;;;;;;;;;;;;;;17.93;48.13;99812.34;4970791;28;6982;-85
2023/03/30 11:55:10;;;;;;;;;;;;;;;17.58;48.68;99812.03;4950294;28;7202;-87
2023/03/30 11:57:51;;;;;;;;;;;;;;;17.35;49.59;99837.72;4956191;28;7193;-86
2023/03/30 12:00:45;;;;;;;;;;;;;;;17.16;50.07;99844.38;4959580;28;8383;-85
2023/03/30 12:03:35;;;;;;;;;;;;;;;16.83;49.81;99850.84;4930835;28;8543;-85
2023/03/30 12:06:37;;;;;;;;;;;;;;;16.43;50.18;99823.56;4968710;28;6828;-85
2023/03/30 12:09:34;;;;;;;;;;;;;;;16.14;51.17;99834.31;4960362;28;8307;-86
2023/03/30 12:12:17;;;;;;;;;;;;;;;15.91;51.57;99844.28;4964188;28;7245;-86
2023/03/30 12:15:03;;;;;;;;;;;;;;;15.73;52.25;99825.00;4947776;28;7105;-87
2023/03/30 12:17:59;;;;;;;;;;;;;;;15.56;52.40;99829.84;4951649;28;7170;-86
2023/03/30 12:21:26;;;;;;;;;;;;;;;15.43;52.85;99827.88;4961756;28;8459;-92
2023/03/30 12:23:53;;;;;;;;;;;;;;;15.30;54.12;99837.09;4963837;28;7153;-88
2023/03/30 12:26:26;;;;;;;;;;;;;;;15.20;54.19;99817.97;4962986;28;7426;-88
2023/03/30 12:28:52;;;;;;;;;;;;;;;15.14;54.74;99805.81;4972464;28;8595;-89
2023/03/30 12:31:18;;;;;;;;;;;;;;;15.18;55.01;99817.09;4950602;28;6992;-87
2023/03/30 12:33:51;;;;;;;;;;;;;;;15.36;56.03;99814.88;4970021;28;7033;-88
2023/03/30 12:36:21;;;;;;;;;;;;;;;15.77;56.86;99810.41;4944820;28;8516;-89
2023/03/30 12:38:48;;;;;;;;;;;;;;;16.29;57.26;99812.13;4953474;28;6880;-87
2023/03/30 12:41:19;;;;;;;;;;;;;;;16.79;56.80;99811.97;4930751;28;7152;-88
2023/03/30 12:44:31;;;;;;;;;;;;;;;17.26;56.17;99797.03;4960451;28;6992;-91
2023/03/30 12:47:34;;;;;;;;;;;;;;;17.65;55.40;99810.38;4961113;28;6987;-91
2023/03/30 12:50:26;;;;;;;;;;;;;;;17.86;54.54;99808.84;4958983;28;7251;-90
2023/03/30 12:53:42;;;;;;;;;;;;;;;17.90;54.27;99800.22;4962510;28;6994;-91
2023/03/30 12:56:39;;;;;;;;;;;;;;;17.83;53.95;99819.19;4983769;28;6768;-91
2023/03/30 12:59:45;;;;;;;;;;;;;;;;;;;;;
2023/03/30 13:02:54;;;;;;;;;;;;;;;17.51;54.04;99806.78;4978853;28;6835;-90
2023/03/30 13:05:30;;;;;;;;;;;;;;;17.43;54.62;99799.81;4965846;28;7040;-91
2023/03/30 13:08:20;;;;;;;;;;;;;;;17.56;54.98;99793.00;4952716;28;6963;-90
2023/03/30 13:10:46;;;;;;;;;;;;;;;17.94;55.65;99785.56;4974263;28;6971;-91
2023/03/30 13:14:13;;;;;;;;;;;;;;;18.65;54.41;99788.66;4956942;28;6942;-90
2023/03/30 13:16:49;;;;;;;;;;;;;;;19.63;52.63;99773.38;4959678;28;7006;-91
2023/03/30 13:19:47;;;;;;;;;;;;;;;20.47;51.11;99778.53;4981009;28;7143;-91
2023/03/30 13:22:14;;;;;;;;;;;;;;;21.00;49.75;99770.53;4932148;28;7152;-88
2023/03/30 13:24:45;;;;;;;;;;;;;;;21.22;48.03;99768.66;4948831;28;7012;-86
2023/03/30 13:27:16;;;;;;;;;;;;;;;21.33;47.82;99749.50;4946846;28;8511;-84
2023/03/30 13:29:59;;;;;;;;;;;;;;;21.50;46.83;99752.00;4975718;28;7637;-84
2023/03/30 13:33:11;;;;;;;;;;;;;;;21.73;46.73;99749.25;4949670;28;8329;-88
2023/03/30 13:36:09;;;;;;;;;;;;;;;22.14;46.67;99743.66;4958169;28;7214;-89
2023/03/30 13:39:11;;;;;;;;;;;;;;;22.51;45.71;99745.00;4957394;28;7041;-90